| time (UTC) | temp C | wind direction | speed KPH | gust KPH | rain 1hr cm | rain 24hr cm | rain mn cm | humidity % | barometer mb |
| 20260510045308 | 11 | 227 | 0.0 | 0.0 | 0.00 | 0.00 | 0.00 | 97 | 1010.1 |
| 20260510044805 | 12 | 227 | 0.0 | 0.0 | 0.00 | 0.00 | 0.00 | 97 | 1010.1 |
| 20260510044301 | 12 | 227 | 0.0 | 0.0 | 0.00 | 0.00 | 0.00 | 97 | 1010.0 |
| 20260510043758 | 12 | 227 | 0.0 | 0.0 | 0.00 | 0.00 | 0.00 | 96 | 1010.2 |
| 20260510043249 | 12 | 226 | 0.0 | 0.0 | 0.00 | 0.00 | 0.00 | 96 | 1010.2 |
| 20260510042746 | 12 | 238 | 0.0 | 0.0 | 0.00 | 0.00 | 0.00 | 95 | 1010.1 |
| 20260510042241 | 12 | 276 | 0.0 | 0.0 | 0.00 | 0.00 | 0.00 | 95 | 1009.9 |
| 20260510041738 | 12 | 325 | 0.0 | 0.0 | 0.00 | 0.00 | 0.00 | 96 | 1009.9 |
| 20260510041230 | 12 | 319 | 0.0 | 1.6 | 0.00 | 0.00 | 0.00 | 96 | 1010.1 |
| 20260510040727 | 13 | 210 | 0.0 | 0.0 | 0.00 | 0.00 | 0.00 | 96 | 1010.4 |
| 20260510040224 | 13 | 210 | 0.0 | 0.0 | 0.00 | 0.00 | 0.00 | 96 | 1010.1 |
| 20260510035719 | 12 | 210 | 0.0 | 0.0 | 0.00 | 0.00 | 0.00 | 96 | 1010.1 |
| 20260510035215 | 12 | 210 | 0.0 | 0.0 | 0.00 | 0.00 | 0.00 | 97 | 1010.0 |
| 20260510034711 | 12 | 210 | 0.0 | 0.0 | 0.00 | 0.00 | 0.00 | 96 | 1010.0 |
| 20260510034210 | 12 | 210 | 0.0 | 0.0 | 0.00 | 0.00 | 0.00 | 96 | 1009.9 |
| 20260510033705 | 12 | 210 | 0.0 | 0.0 | 0.00 | 0.00 | 0.00 | 96 | 1010.0 |
| 20260510033203 | 12 | 210 | 0.0 | 0.0 | 0.00 | 0.00 | 0.00 | 95 | 1009.8 |
| 20260510032659 | 13 | 210 | 0.0 | 0.0 | 0.00 | 0.00 | 0.00 | 95 | 1009.8 |
| 20260510032155 | 13 | 210 | 0.0 | 0.0 | 0.00 | 0.00 | 0.00 | 95 | 1009.7 |
| 20260510031649 | 13 | 210 | 0.0 | 0.0 | 0.00 | 0.00 | 0.00 | 94 | 1009.6 |
| 20260510031146 | 13 | 210 | 0.0 | 0.0 | 0.00 | 0.00 | 0.00 | 93 | 1009.6 |
| 20260510030641 | 13 | 210 | 0.0 | 0.0 | 0.00 | 0.00 | 0.00 | 93 | 1009.7 |
| 20260510030139 | 13 | 210 | 0.0 | 0.0 | 0.00 | 0.00 | 0.00 | 93 | 1009.6 |
| 20260510025636 | 13 | 210 | 0.0 | 0.0 | 0.00 | 0.00 | 0.00 | 93 | 1009.6 |
| 20260510025133 | 13 | 210 | 0.0 | 0.0 | 0.00 | 0.00 | 0.00 | 92 | 1009.6 |
| 20260510024630 | 13 | 210 | 0.0 | 0.0 | 0.00 | 0.00 | 0.00 | 92 | 1009.6 |
| 20260510024126 | 13 | 210 | 0.0 | 0.0 | 0.00 | 0.00 | 0.00 | 91 | 1009.5 |
| 20260510023622 | 13 | 210 | 0.0 | 0.0 | 0.00 | 0.00 | 0.00 | 91 | 1009.5 |
| 20260510023120 | 13 | 210 | 0.0 | 0.0 | 0.00 | 0.00 | 0.00 | 90 | 1009.5 |
| 20260510022619 | 13 | 210 | 0.0 | 0.0 | 0.00 | 0.00 | 0.00 | 90 | 1009.6 |
| 20260510022114 | 13 | 210 | 0.0 | 0.0 | 0.00 | 0.00 | 0.00 | 89 | 1009.4 |
| 20260510021610 | 14 | 210 | 0.0 | 0.0 | 0.00 | 0.00 | 0.00 | 89 | 1009.3 |
| 20260510021108 | 14 | 210 | 0.0 | 1.6 | 0.00 | 0.00 | 0.00 | 89 | 1009.2 |
| 20260510020602 | 14 | 210 | 0.0 | 0.0 | 0.00 | 0.00 | 0.00 | 88 | 1009.1 |
| 20260510020058 | 15 | 210 | 0.0 | 0.0 | 0.00 | 0.00 | 0.00 | 87 | 1009.2 |
| 20260510015554 | 15 | 210 | 0.0 | 0.0 | 0.00 | 0.00 | 0.00 | 86 | 1009.1 |
| 20260510015050 | 15 | 210 | 0.0 | 0.0 | 0.00 | 0.00 | 0.00 | 84 | 1008.9 |
| 20260510014546 | 15 | 210 | 0.0 | 0.0 | 0.00 | 0.00 | 0.00 | 84 | 1009.0 |
| 20260510014044 | 15 | 210 | 0.0 | 0.0 | 0.00 | 0.00 | 0.00 | 83 | 1008.5 |
| 20260510013538 | 15 | 210 | 0.0 | 0.0 | 0.00 | 0.00 | 0.00 | 83 | 1008.7 |
| 20260510013034 | 16 | 210 | 1.6 | 1.6 | 0.00 | 0.00 | 0.00 | 81 | 1008.6 |
| 20260510012528 | 16 | 210 | 0.0 | 0.0 | 0.00 | 0.00 | 0.00 | 79 | 1008.4 |
| 20260510012025 | 16 | 210 | 0.0 | 0.0 | 0.00 | 0.00 | 0.00 | 79 | 1008.6 |
| 20260510011524 | 16 | 210 | 0.0 | 0.0 | 0.00 | 0.00 | 0.00 | 79 | 1008.1 |
| 20260510011020 | 16 | 210 | 0.0 | 0.0 | 0.00 | 0.00 | 0.00 | 76 | 1008.2 |
| 20260510010517 | 16 | 210 | 0.0 | 0.0 | 0.00 | 0.00 | 0.00 | 74 | 1008.0 |
| 20260510010014 | 16 | 210 | 0.0 | 0.0 | 0.00 | 0.00 | 0.00 | 73 | 1008.1 |
| 20260510005510 | 17 | 210 | 0.0 | 0.0 | 0.00 | 0.00 | 0.00 | 72 | 1008.1 |
| 20260510005008 | 17 | 210 | 0.0 | 0.0 | 0.00 | 0.00 | 0.00 | 71 | 1007.9 |
| 20260510004505 | 17 | 210 | 0.0 | 0.0 | 0.00 | 0.00 | 0.00 | 70 | 1008.0 |
| 20260510004003 | 17 | 210 | 0.0 | 0.0 | 0.00 | 0.00 | 0.00 | 68 | 1007.7 |
| 20260510003459 | 18 | 210 | 0.0 | 0.0 | 0.00 | 0.00 | 0.00 | 68 | 1007.7 |
| 20260510002955 | 18 | 210 | 0.0 | 0.0 | 0.00 | 0.00 | 0.00 | 66 | 1007.6 |
| 20260510002451 | 18 | 210 | 0.0 | 0.0 | 0.00 | 0.00 | 0.00 | 65 | 1007.6 |
| 20260510001947 | 19 | 210 | 0.0 | 0.0 | 0.00 | 0.00 | 0.00 | 64 | 1007.3 |
| 20260510001445 | 19 | 210 | 0.0 | 0.0 | 0.00 | 0.00 | 0.00 | 63 | 1007.5 |
| 20260510000943 | 20 | 210 | 0.0 | 0.0 | 0.00 | 0.00 | 0.00 | 61 | 1007.4 |
| 20260510000440 | 20 | 210 | 0.0 | 0.0 | 0.00 | 0.00 | 0.00 | 59 | 1007.4 |
| 20260509235935 | 21 | 207 | 1.6 | 3.2 | 0.00 | 0.00 | 0.00 | 58 | 1007.6 |
| 20260509235432 | 21 | 217 | 1.6 | 3.2 | 0.00 | 0.00 | 0.00 | 58 | 1007.5 |
| 20260509234928 | 21 | 251 | 1.6 | 1.6 | 0.00 | 0.00 | 0.00 | 56 | 1007.4 |
| 20260509234425 | 22 | 251 | 0.0 | 1.6 | 0.00 | 0.00 | 0.00 | 54 | 1007.2 |
| 20260509233923 | 22 | 226 | 1.6 | 3.2 | 0.00 | 0.00 | 0.00 | 52 | 1007.1 |
| 20260509233420 | 22 | 220 | 1.6 | 3.2 | 0.00 | 0.00 | 0.00 | 52 | 1007.3 |
| 20260509232916 | 22 | 224 | 1.6 | 3.2 | 0.00 | 0.00 | 0.00 | 51 | 1007.4 |
| 20260509232414 | 22 | 221 | 1.6 | 3.2 | 0.00 | 0.00 | 0.00 | 51 | 1007.4 |
| 20260509231909 | 22 | 183 | 3.2 | 3.2 | 0.00 | 0.00 | 0.00 | 50 | 1007.4 |
| 20260509231407 | 22 | 181 | 3.2 | 9.7 | 0.00 | 0.00 | 0.00 | 50 | 1007.1 |
| 20260509230905 | 22 | 192 | 1.6 | 8.0 | 0.00 | 0.00 | 0.00 | 49 | 1007.3 |
| 20260509230401 | 23 | 225 | 0.0 | 3.2 | 0.00 | 0.00 | 0.00 | 49 | 1007.3 |
| 20260509225857 | 23 | 230 | 1.6 | 4.8 | 0.00 | 0.00 | 0.00 | 48 | 1007.2 |
| 20260509225354 | 23 | 214 | 3.2 | 3.2 | 0.00 | 0.00 | 0.00 | 47 | 1007.0 |
| 20260509224849 | 23 | 181 | 3.2 | 3.2 | 0.00 | 0.00 | 0.00 | 47 | 1007.0 |
| 20260509224346 | 23 | 254 | 1.6 | 4.8 | 0.00 | 0.00 | 0.00 | 47 | 1007.1 |
| 20260509223843 | 24 | 218 | 1.6 | 3.2 | 0.00 | 0.00 | 0.00 | 46 | 1007.1 |
| 20260509223340 | 24 | 204 | 4.8 | 8.0 | 0.00 | 0.00 | 0.00 | 46 | 1007.2 |
| 20260509222837 | 24 | 185 | 4.8 | 11.3 | 0.00 | 0.00 | 0.00 | 45 | 1007.2 |
| 20260509222332 | 24 | 196 | 6.4 | 9.7 | 0.00 | 0.00 | 0.00 | 46 | 1007.1 |
| 20260509221827 | 24 | 192 | 3.2 | 4.8 | 0.00 | 0.00 | 0.00 | 46 | 1007.3 |
| 20260509221325 | 23 | 188 | 4.8 | 4.8 | 0.00 | 0.00 | 0.00 | 46 | 1007.2 |
| 20260509220825 | 23 | 202 | 1.6 | 8.0 | 0.00 | 0.00 | 0.00 | 47 | 1007.2 |
| 20260509220321 | 23 | 207 | 3.2 | 4.8 | 0.00 | 0.00 | 0.00 | 46 | 1007.3 |
| 20260509215817 | 23 | 181 | 4.8 | 4.8 | 0.00 | 0.00 | 0.00 | 45 | 1007.5 |
| 20260509215314 | 23 | 240 | 1.6 | 11.3 | 0.00 | 0.00 | 0.00 | 45 | 1007.3 |
| 20260509214811 | 24 | 333 | 1.6 | 1.6 | 0.00 | 0.00 | 0.00 | 44 | 1007.2 |
| 20260509214308 | 24 | 249 | 4.8 | 8.0 | 0.00 | 0.00 | 0.00 | 44 | 1007.2 |
| 20260509213805 | 25 | 188 | 4.8 | 9.7 | 0.00 | 0.00 | 0.00 | 44 | 1007.1 |
| 20260509213301 | 25 | 220 | 8.0 | 14.5 | 0.00 | 0.00 | 0.00 | 44 | 1007.1 |
| 20260509212758 | 25 | 193 | 4.8 | 11.3 | 0.00 | 0.00 | 0.00 | 45 | 1007.3 |
| 20260509212255 | 25 | 208 | 3.2 | 8.0 | 0.00 | 0.00 | 0.00 | 45 | 1007.2 |
| 20260509211751 | 24 | 178 | 8.0 | 9.7 | 0.00 | 0.00 | 0.00 | 44 | 1007.1 |
| 20260509211248 | 24 | 201 | 1.6 | 3.2 | 0.00 | 0.00 | 0.00 | 44 | 1007.0 |
| 20260509210744 | 25 | 193 | 6.4 | 11.3 | 0.00 | 0.00 | 0.00 | 42 | 1006.9 |
| 20260509210242 | 25 | 200 | 4.8 | 14.5 | 0.00 | 0.00 | 0.00 | 44 | 1007.0 |
| 20260509205741 | 24 | 210 | 3.2 | 9.7 | 0.00 | 0.00 | 0.00 | 44 | 1007.0 |
| 20260509205236 | 23 | 268 | 1.6 | 3.2 | 0.00 | 0.00 | 0.00 | 46 | 1006.9 |
| 20260509204732 | 23 | 240 | 1.6 | 9.7 | 0.00 | 0.00 | 0.00 | 46 | 1006.8 |
| 20260509204229 | 23 | 174 | 4.8 | 8.0 | 0.00 | 0.00 | 0.00 | 44 | 1007.3 |
| 20260509203725 | 24 | 197 | 4.8 | 16.1 | 0.00 | 0.00 | 0.00 | 46 | 1006.9 |
| 20260509203223 | 25 | 225 | 6.4 | 16.1 | 0.00 | 0.00 | 0.00 | 43 | 1007.1 |
| 20260509202719 | 24 | 114 | 6.4 | 11.3 | 0.00 | 0.00 | 0.00 | 44 | 1007.0 |
| 20260509202214 | 24 | 198 | 8.0 | 9.7 | 0.00 | 0.00 | 0.00 | 45 | 1006.9 |
| 20260509201709 | 23 | 180 | 6.4 | 11.3 | 0.00 | 0.00 | 0.00 | 45 | 1007.0 |
| 20260509201206 | 23 | 221 | 8.0 | 9.7 | 0.00 | 0.00 | 0.00 | 46 | 1007.1 |
| 20260509200703 | 24 | 171 | 3.2 | 8.0 | 0.00 | 0.00 | 0.00 | 47 | 1007.0 |
| 20260509200157 | 24 | 34 | 1.6 | 8.0 | 0.00 | 0.00 | 0.00 | 47 | 1007.1 |
| 20260509195654 | 24 | 225 | 11.3 | 16.1 | 0.00 | 0.00 | 0.00 | 46 | 1007.1 |
| 20260509195149 | 24 | 200 | 6.4 | 9.7 | 0.00 | 0.00 | 0.00 | 47 | 1007.2 |
| 20260509194649 | 24 | 218 | 0.0 | 9.7 | 0.00 | 0.00 | 0.00 | 47 | 1007.3 |
| 20260509194146 | 23 | 198 | 4.8 | 11.3 | 0.00 | 0.00 | 0.00 | 49 | 1007.5 |
| 20260509193642 | 23 | 308 | 4.8 | 4.8 | 0.00 | 0.00 | 0.00 | 47 | 1007.5 |
| 20260509193138 | 24 | 192 | 3.2 | 8.0 | 0.00 | 0.00 | 0.00 | 46 | 1007.5 |
| 20260509192635 | 24 | 194 | 6.4 | 9.7 | 0.00 | 0.00 | 0.00 | 48 | 1007.8 |
| 20260509192129 | 24 | 359 | 3.2 | 4.8 | 0.00 | 0.00 | 0.00 | 49 | 1007.8 |
| 20260509191624 | 23 | 205 | 4.8 | 8.0 | 0.00 | 0.00 | 0.00 | 51 | 1007.7 |
| 20260509191121 | 22 | 194 | 3.2 | 4.8 | 0.00 | 0.00 | 0.00 | 51 | 1008.2 |
| 20260509190617 | 22 | 223 | 4.8 | 11.3 | 0.00 | 0.00 | 0.00 | 53 | 1008.0 |
| 20260509190115 | 22 | 176 | 8.0 | 11.3 | 0.00 | 0.00 | 0.00 | 54 | 1008.0 |
| 20260509185612 | 22 | 188 | 3.2 | 4.8 | 0.00 | 0.00 | 0.00 | 53 | 1008.0 |
| 20260509185108 | 22 | 238 | 8.0 | 14.5 | 0.00 | 0.00 | 0.00 | 54 | 1008.0 |
| 20260509184607 | 22 | 150 | 3.2 | 9.7 | 0.00 | 0.00 | 0.00 | 54 | 1008.1 |
| 20260509184103 | 22 | 200 | 3.2 | 3.2 | 0.00 | 0.00 | 0.00 | 55 | 1008.3 |
| 20260509183558 | 22 | 181 | 4.8 | 12.9 | 0.00 | 0.00 | 0.00 | 53 | 1008.4 |
| 20260509183054 | 22 | 185 | 8.0 | 12.9 | 0.00 | 0.00 | 0.00 | 54 | 1008.3 |
| 20260509182551 | 21 | 193 | 4.8 | 11.3 | 0.00 | 0.00 | 0.00 | 55 | 1008.5 |
| 20260509182048 | 22 | 249 | 4.8 | 11.3 | 0.00 | 0.00 | 0.00 | 55 | 1008.7 |
| 20260509181546 | 21 | 212 | 4.8 | 14.5 | 0.00 | 0.00 | 0.00 | 57 | 1008.7 |
| 20260509181043 | 21 | 237 | 4.8 | 14.5 | 0.00 | 0.00 | 0.00 | 58 | 1008.7 |
| 20260509180538 | 21 | 157 | 6.4 | 9.7 | 0.00 | 0.00 | 0.00 | 57 | 1008.9 |
| 20260509180036 | 21 | 354 | 3.2 | 17.7 | 0.00 | 0.00 | 0.00 | 58 | 1008.9 |
| 20260509175531 | 21 | 188 | 6.4 | 8.0 | 0.00 | 0.00 | 0.00 | 58 | 1008.9 |
| 20260509175029 | 21 | 194 | 9.7 | 11.3 | 0.00 | 0.00 | 0.00 | 59 | 1009.1 |
| 20260509174526 | 21 | 225 | 3.2 | 9.7 | 0.00 | 0.00 | 0.00 | 59 | 1009.4 |
| 20260509174020 | 21 | 210 | 4.8 | 11.3 | 0.00 | 0.00 | 0.00 | 59 | 1009.1 |
| 20260509173515 | 21 | 218 | 1.6 | 3.2 | 0.00 | 0.00 | 0.00 | 58 | 1009.1 |
| 20260509173011 | 20 | 149 | 6.4 | 11.3 | 0.00 | 0.00 | 0.00 | 60 | 1009.5 |
| 20260509172508 | 20 | 215 | 6.4 | 9.7 | 0.00 | 0.00 | 0.00 | 61 | 1009.4 |
| 20260509172004 | 20 | 244 | 1.6 | 4.8 | 0.00 | 0.00 | 0.00 | 60 | 1009.4 |
| 20260509171500 | 20 | 247 | 1.6 | 9.7 | 0.00 | 0.00 | 0.00 | 60 | 1009.5 |
| 20260509170956 | 20 | 182 | 4.8 | 11.3 | 0.00 | 0.00 | 0.00 | 60 | 1009.6 |
| 20260509170453 | 20 | 184 | 9.7 | 14.5 | 0.00 | 0.00 | 0.00 | 60 | 1009.5 |
| 20260509165948 | 20 | 187 | 8.0 | 9.7 | 0.00 | 0.00 | 0.00 | 59 | 1009.5 |
| 20260509165447 | 20 | 305 | 1.6 | 12.9 | 0.00 | 0.00 | 0.00 | 60 | 1009.6 |
| 20260509164943 | 20 | 271 | 0.0 | 8.0 | 0.00 | 0.00 | 0.00 | 59 | 1009.4 |
| 20260509164439 | 20 | 197 | 3.2 | 9.7 | 0.00 | 0.00 | 0.00 | 59 | 1009.5 |
| 20260509163935 | 20 | 202 | 1.6 | 9.7 | 0.00 | 0.00 | 0.00 | 58 | 1009.5 |
| 20260509163433 | 21 | 175 | 4.8 | 16.1 | 0.00 | 0.00 | 0.00 | 58 | 1009.5 |
| 20260509162932 | 20 | 182 | 8.0 | 12.9 | 0.00 | 0.00 | 0.00 | 58 | 1009.5 |
| 20260509162431 | 20 | 148 | 4.8 | 9.7 | 0.00 | 0.00 | 0.00 | 59 | 1009.2 |
| 20260509161926 | 20 | 223 | 4.8 | 11.3 | 0.00 | 0.00 | 0.00 | 59 | 1009.6 |
| 20260509161423 | 20 | 176 | 4.8 | 9.7 | 0.00 | 0.00 | 0.00 | 60 | 1009.6 |
| 20260509160918 | 19 | 204 | 4.8 | 11.3 | 0.00 | 0.00 | 0.00 | 60 | 1009.6 |
| 20260509160414 | 19 | 202 | 16.1 | 22.5 | 0.00 | 0.00 | 0.00 | 59 | 1009.6 |
| 20260509155910 | 19 | 172 | 9.7 | 11.3 | 0.00 | 0.00 | 0.00 | 60 | 1009.8 |
| 20260509155407 | 19 | 201 | 3.2 | 12.9 | 0.00 | 0.00 | 0.00 | 61 | 1009.7 |
| 20260509154903 | 20 | 195 | 4.8 | 12.9 | 0.00 | 0.00 | 0.00 | 60 | 1009.8 |
| 20260509154359 | 20 | 219 | 12.9 | 16.1 | 0.00 | 0.00 | 0.00 | 59 | 1009.8 |
| 20260509153856 | 20 | 195 | 4.8 | 11.3 | 0.00 | 0.00 | 0.00 | 59 | 1009.6 |
| 20260509153353 | 19 | 314 | 6.4 | 9.7 | 0.00 | 0.00 | 0.00 | 60 | 1009.5 |
| 20260509152850 | 18 | 187 | 3.2 | 12.9 | 0.00 | 0.00 | 0.00 | 61 | 1009.6 |
| 20260509152346 | 18 | 196 | 1.6 | 4.8 | 0.00 | 0.00 | 0.00 | 60 | 1009.8 |
| 20260509151843 | 18 | 172 | 8.0 | 12.9 | 0.00 | 0.00 | 0.00 | 61 | 1010.1 |
| 20260509151339 | 18 | 192 | 11.3 | 17.7 | 0.00 | 0.00 | 0.00 | 60 | 1010.1 |
| 20260509150838 | 18 | 206 | 11.3 | 12.9 | 0.00 | 0.00 | 0.00 | 60 | 1010.0 |
| 20260509150336 | 17 | 203 | 4.8 | 8.0 | 0.00 | 0.00 | 0.00 | 62 | 1010.0 |
| 20260509145833 | 18 | 182 | 8.0 | 9.7 | 0.00 | 0.00 | 0.00 | 61 | 1010.1 |
| 20260509145333 | 17 | 172 | 3.2 | 12.9 | 0.00 | 0.00 | 0.00 | 63 | 1009.9 |
| 20260509144830 | 17 | 220 | 4.8 | 4.8 | 0.00 | 0.00 | 0.00 | 62 | 1010.1 |
| 20260509144327 | 17 | 220 | 3.2 | 8.0 | 0.00 | 0.00 | 0.00 | 63 | 1010.3 |
| 20260509143823 | 16 | 229 | 0.0 | 1.6 | 0.00 | 0.00 | 0.00 | 64 | 1010.1 |
| 20260509143321 | 16 | 180 | 4.8 | 8.0 | 0.00 | 0.00 | 0.00 | 64 | 1010.2 |
| 20260509142817 | 15 | 206 | 3.2 | 12.9 | 0.00 | 0.00 | 0.00 | 66 | 1010.1 |
| 20260509142313 | 15 | 184 | 4.8 | 12.9 | 0.00 | 0.00 | 0.00 | 66 | 1010.3 |
| 20260509141809 | 15 | 209 | 4.8 | 11.3 | 0.00 | 0.00 | 0.00 | 66 | 1010.3 |
| 20260509141306 | 15 | 222 | 4.8 | 9.7 | 0.00 | 0.00 | 0.00 | 66 | 1010.6 |
| 20260509140803 | 15 | 216 | 6.4 | 8.0 | 0.00 | 0.00 | 0.00 | 65 | 1010.6 |
| 20260509140300 | 15 | 174 | 6.4 | 8.0 | 0.00 | 0.00 | 0.00 | 65 | 1010.7 |
| 20260509135758 | 15 | 204 | 4.8 | 11.3 | 0.00 | 0.00 | 0.00 | 66 | 1010.9 |
| 20260509135255 | 15 | 216 | 4.8 | 8.0 | 0.00 | 0.00 | 0.00 | 66 | 1010.9 |
| 20260509134752 | 15 | 153 | 4.8 | 11.3 | 0.00 | 0.00 | 0.00 | 66 | 1010.7 |
| 20260509134249 | 14 | 177 | 4.8 | 9.7 | 0.00 | 0.00 | 0.00 | 66 | 1010.9 |
| 20260509133747 | 14 | 183 | 3.2 | 4.8 | 0.00 | 0.00 | 0.00 | 68 | 1010.9 |
| 20260509133243 | 14 | 210 | 4.8 | 8.0 | 0.00 | 0.00 | 0.00 | 67 | 1011.1 |
| 20260509132742 | 13 | 194 | 4.8 | 11.3 | 0.00 | 0.00 | 0.00 | 67 | 1010.8 |
| 20260509132240 | 13 | 199 | 4.8 | 12.9 | 0.00 | 0.00 | 0.00 | 67 | 1011.0 |
| 20260509131736 | 13 | 190 | 11.3 | 12.9 | 0.00 | 0.00 | 0.00 | 66 | 1010.8 |
| 20260509131233 | 13 | 343 | 1.6 | 9.7 | 0.00 | 0.00 | 0.00 | 67 | 1010.6 |
| 20260509130729 | 13 | 212 | 4.8 | 9.7 | 0.00 | 0.00 | 0.00 | 67 | 1010.9 |
| 20260509130225 | 13 | 172 | 4.8 | 11.3 | 0.00 | 0.00 | 0.00 | 67 | 1010.8 |
| 20260509125722 | 13 | 163 | 4.8 | 12.9 | 0.00 | 0.00 | 0.00 | 67 | 1010.9 |
| 20260509125219 | 13 | 240 | 9.7 | 20.9 | 0.00 | 0.00 | 0.00 | 66 | 1011.1 |
| 20260509124715 | 13 | 235 | 3.2 | 9.7 | 0.00 | 0.00 | 0.00 | 67 | 1011.0 |
| 20260509124212 | 13 | 202 | 9.7 | 11.3 | 0.00 | 0.00 | 0.00 | 66 | 1010.8 |
| 20260509123710 | 13 | 187 | 4.8 | 11.3 | 0.00 | 0.00 | 0.00 | 67 | 1010.9 |
| 20260509123207 | 13 | 190 | 6.4 | 11.3 | 0.00 | 0.00 | 0.00 | 67 | 1010.9 |
| 20260509122702 | 13 | 188 | 3.2 | 8.0 | 0.00 | 0.00 | 0.00 | 67 | 1011.1 |
| 20260509122200 | 13 | 198 | 4.8 | 8.0 | 0.00 | 0.00 | 0.00 | 68 | 1010.8 |
| 20260509121656 | 12 | 249 | 1.6 | 9.7 | 0.00 | 0.00 | 0.00 | 67 | 1010.7 |
| 20260509121154 | 12 | 179 | 6.4 | 16.1 | 0.00 | 0.00 | 0.00 | 67 | 1010.7 |
| 20260509120652 | 12 | 217 | 6.4 | 9.7 | 0.00 | 0.00 | 0.00 | 67 | 1010.8 |
| 20260509120149 | 12 | 183 | 0.0 | 11.3 | 0.00 | 0.00 | 0.00 | 67 | 1010.9 |
| 20260509115647 | 12 | 201 | 8.0 | 12.9 | 0.00 | 0.00 | 0.00 | 67 | 1010.7 |
| 20260509115144 | 12 | 184 | 4.8 | 11.3 | 0.00 | 0.00 | 0.00 | 67 | 1010.8 |
| 20260509114642 | 12 | 228 | 3.2 | 8.0 | 0.00 | 0.00 | 0.00 | 67 | 1010.6 |
| 20260509114142 | 12 | 193 | 6.4 | 14.5 | 0.00 | 0.00 | 0.00 | 67 | 1010.7 |
| 20260509113639 | 12 | 194 | 6.4 | 12.9 | 0.00 | 0.00 | 0.00 | 67 | 1010.8 |
| 20260509113136 | 12 | 204 | 3.2 | 9.7 | 0.00 | 0.00 | 0.00 | 67 | 1010.7 |
| 20260509112632 | 12 | 205 | 1.6 | 8.0 | 0.00 | 0.00 | 0.00 | 67 | 1010.5 |
| 20260509112130 | 12 | 195 | 1.6 | 4.8 | 0.00 | 0.00 | 0.00 | 67 | 1010.5 |
| 20260509111627 | 12 | 263 | 1.6 | 4.8 | 0.00 | 0.00 | 0.00 | 67 | 1010.6 |
| 20260509111123 | 12 | 186 | 3.2 | 3.2 | 0.00 | 0.00 | 0.00 | 67 | 1010.6 |
| 20260509110621 | 12 | 220 | 6.4 | 8.0 | 0.00 | 0.00 | 0.00 | 67 | 1010.6 |
| 20260509110118 | 12 | 232 | 1.6 | 4.8 | 0.00 | 0.00 | 0.00 | 67 | 1010.6 |
| 20260509105616 | 12 | 200 | 3.2 | 9.7 | 0.00 | 0.00 | 0.00 | 67 | 1010.6 |
| 20260509105113 | 12 | 205 | 4.8 | 8.0 | 0.00 | 0.00 | 0.00 | 67 | 1010.4 |
| 20260509104610 | 12 | 200 | 3.2 | 8.0 | 0.00 | 0.00 | 0.00 | 67 | 1010.6 |
| 20260509104108 | 12 | 191 | 3.2 | 4.8 | 0.00 | 0.00 | 0.00 | 67 | 1010.5 |
| 20260509103605 | 12 | 211 | 3.2 | 4.8 | 0.00 | 0.00 | 0.00 | 67 | 1010.4 |
| 20260509103103 | 12 | 209 | 4.8 | 9.7 | 0.00 | 0.00 | 0.00 | 67 | 1010.5 |
| 20260509102600 | 12 | 224 | 0.0 | 1.6 | 0.00 | 0.00 | 0.00 | 68 | 1010.3 |
| 20260509102056 | 12 | 228 | 1.6 | 3.2 | 0.00 | 0.00 | 0.00 | 67 | 1010.3 |
| 20260509101553 | 12 | 208 | 1.6 | 3.2 | 0.00 | 0.00 | 0.00 | 68 | 1010.4 |
| 20260509101049 | 12 | 204 | 1.6 | 3.2 | 0.00 | 0.00 | 0.00 | 66 | 1010.6 |
| 20260509100547 | 12 | 221 | 1.6 | 1.6 | 0.00 | 0.00 | 0.00 | 66 | 1010.6 |
| 20260509100044 | 12 | 219 | 1.6 | 1.6 | 0.00 | 0.00 | 0.00 | 66 | 1010.5 |
| 20260509095540 | 12 | 222 | 1.6 | 4.8 | 0.00 | 0.00 | 0.00 | 65 | 1010.5 |
| 20260509095038 | 12 | 260 | 0.0 | 3.2 | 0.00 | 0.00 | 0.00 | 65 | 1010.4 |
| 20260509094534 | 12 | 275 | 0.0 | 3.2 | 0.00 | 0.00 | 0.00 | 64 | 1010.5 |
| 20260509094032 | 12 | 197 | 3.2 | 3.2 | 0.00 | 0.00 | 0.00 | 64 | 1010.4 |
| 20260509093530 | 12 | 209 | 4.8 | 4.8 | 0.00 | 0.00 | 0.00 | 64 | 1010.6 |
| 20260509093027 | 12 | 184 | 3.2 | 8.0 | 0.00 | 0.00 | 0.00 | 63 | 1010.6 |
| 20260509092525 | 12 | 205 | 4.8 | 4.8 | 0.00 | 0.00 | 0.00 | 64 | 1010.6 |
| 20260509092023 | 12 | 231 | 3.2 | 3.2 | 0.00 | 0.00 | 0.00 | 63 | 1010.6 |
| 20260509091520 | 12 | 320 | 1.6 | 4.8 | 0.00 | 0.00 | 0.00 | 63 | 1010.8 |
| 20260509091017 | 12 | 189 | 4.8 | 8.0 | 0.00 | 0.00 | 0.00 | 63 | 1010.9 |
| 20260509090514 | 12 | 228 | 4.8 | 9.7 | 0.00 | 0.00 | 0.00 | 63 | 1010.8 |
| 20260509090012 | 12 | 192 | 3.2 | 11.3 | 0.00 | 0.00 | 0.00 | 63 | 1010.8 |
| 20260509085508 | 12 | 212 | 1.6 | 3.2 | 0.00 | 0.00 | 0.00 | 63 | 1010.8 |
| 20260509085005 | 12 | 198 | 4.8 | 4.8 | 0.00 | 0.00 | 0.00 | 63 | 1011.0 |
| 20260509084502 | 12 | 187 | 8.0 | 9.7 | 0.00 | 0.00 | 0.00 | 62 | 1010.9 |
| 20260509083959 | 12 | 199 | 3.2 | 8.0 | 0.00 | 0.00 | 0.00 | 62 | 1010.8 |
| 20260509083456 | 12 | 190 | 4.8 | 4.8 | 0.00 | 0.00 | 0.00 | 62 | 1011.0 |
| 20260509082952 | 13 | 245 | 1.6 | 9.7 | 0.00 | 0.00 | 0.00 | 61 | 1011.1 |
| 20260509082450 | 13 | 212 | 3.2 | 4.8 | 0.00 | 0.00 | 0.00 | 61 | 1011.0 |
| 20260509081947 | 13 | 209 | 3.2 | 4.8 | 0.00 | 0.00 | 0.00 | 61 | 1011.1 |
| 20260509081444 | 13 | 198 | 4.8 | 4.8 | 0.00 | 0.00 | 0.00 | 61 | 1011.1 |
| 20260509080941 | 13 | 224 | 0.0 | 1.6 | 0.00 | 0.00 | 0.00 | 61 | 1011.2 |
| 20260509080440 | 13 | 223 | 0.0 | 1.6 | 0.00 | 0.00 | 0.00 | 60 | 1011.2 |
| 20260509075937 | 13 | 209 | 3.2 | 4.8 | 0.00 | 0.00 | 0.00 | 60 | 1011.2 |
| 20260509075434 | 13 | 212 | 3.2 | 3.2 | 0.00 | 0.00 | 0.00 | 60 | 1011.0 |
| 20260509074932 | 13 | 221 | 1.6 | 1.6 | 0.00 | 0.00 | 0.00 | 59 | 1011.2 |
| 20260509074429 | 13 | 220 | 0.0 | 3.2 | 0.00 | 0.00 | 0.00 | 59 | 1011.3 |
| 20260509073925 | 13 | 223 | 0.0 | 1.6 | 0.00 | 0.00 | 0.00 | 59 | 1011.2 |
| 20260509073422 | 13 | 237 | 0.0 | 1.6 | 0.00 | 0.00 | 0.00 | 59 | 1011.2 |
| 20260509072918 | 13 | 221 | 1.6 | 1.6 | 0.00 | 0.00 | 0.00 | 59 | 1011.2 |
| 20260509072415 | 13 | 206 | 1.6 | 3.2 | 0.00 | 0.00 | 0.00 | 58 | 1011.3 |
| 20260509071911 | 13 | 214 | 1.6 | 3.2 | 0.00 | 0.00 | 0.00 | 57 | 1011.2 |
| 20260509071408 | 13 | 201 | 1.6 | 3.2 | 0.00 | 0.00 | 0.00 | 59 | 1011.2 |
| 20260509070906 | 13 | 206 | 1.6 | 3.2 | 0.00 | 0.00 | 0.00 | 59 | 1011.1 |
| 20260509070403 | 13 | 210 | 3.2 | 3.2 | 0.00 | 0.00 | 0.00 | 60 | 1011.1 |
| 20260509065858 | 13 | 169 | 1.6 | 3.2 | 0.00 | 0.00 | 0.00 | 59 | 1011.4 |
| 20260509065355 | 13 | 223 | 3.2 | 4.8 | 0.00 | 0.00 | 0.00 | 59 | 1011.4 |
| 20260509064851 | 13 | 242 | 0.0 | 3.2 | 0.00 | 0.00 | 0.00 | 60 | 1011.2 |
| 20260509064349 | 12 | 220 | 0.0 | 0.0 | 0.00 | 0.00 | 0.00 | 60 | 1011.2 |
| 20260509063846 | 12 | 271 | 1.6 | 1.6 | 0.00 | 0.00 | 0.00 | 61 | 1011.2 |
| 20260509063342 | 12 | 213 | 1.6 | 3.2 | 0.00 | 0.00 | 0.00 | 61 | 1011.4 |
| 20260509062839 | 12 | 202 | 1.6 | 4.8 | 0.00 | 0.00 | 0.00 | 62 | 1011.5 |
| 20260509062336 | 11 | 237 | 0.0 | 1.6 | 0.00 | 0.00 | 0.00 | 65 | 1011.5 |
| 20260509061833 | 11 | 323 | 0.0 | 0.0 | 0.00 | 0.00 | 0.00 | 68 | 1011.5 |
| 20260509061332 | 11 | 323 | 0.0 | 0.0 | 0.00 | 0.00 | 0.00 | 68 | 1011.8 |
| 20260509060828 | 11 | 323 | 0.0 | 0.0 | 0.00 | 0.00 | 0.00 | 67 | 1011.8 |
| 20260509060326 | 11 | 314 | 0.0 | 1.6 | 0.00 | 0.00 | 0.00 | 68 | 1011.9 |
| 20260509055821 | 11 | 231 | 0.0 | 0.0 | 0.00 | 0.00 | 0.00 | 70 | 1011.6 |
| 20260509055316 | 11 | 231 | 0.0 | 0.0 | 0.00 | 0.00 | 0.00 | 67 | 1011.8 |
| 20260509054814 | 11 | 231 | 0.0 | 0.0 | 0.00 | 0.00 | 0.00 | 65 | 1011.7 |
| 20260509054310 | 11 | 230 | 0.0 | 0.0 | 0.00 | 0.00 | 0.00 | 65 | 1011.7 |
| 20260509053808 | 11 | 230 | 0.0 | 0.0 | 0.00 | 0.00 | 0.00 | 63 | 1011.9 |
| 20260509053305 | 12 | 230 | 0.0 | 0.0 | 0.00 | 0.00 | 0.00 | 62 | 1011.6 |
| 20260509052803 | 12 | 230 | 0.0 | 1.6 | 0.00 | 0.00 | 0.00 | 60 | 1011.7 |
| 20260509052301 | 12 | 223 | 1.6 | 1.6 | 0.00 | 0.00 | 0.00 | 59 | 1011.8 |
| 20260509051758 | 12 | 239 | 0.0 | 1.6 | 0.00 | 0.00 | 0.00 | 59 | 1011.9 |
| 20260509051256 | 12 | 219 | 1.6 | 1.6 | 0.00 | 0.00 | 0.00 | 59 | 1011.8 |
| 20260509050753 | 13 | 213 | 1.6 | 1.6 | 0.00 | 0.00 | 0.00 | 58 | 1011.8 |
| 20260509050249 | 13 | 210 | 1.6 | 3.2 | 0.00 | 0.00 | 0.00 | 58 | 1011.9 |
| 20260509045746 | 13 | 211 | 1.6 | 3.2 | 0.00 | 0.00 | 0.00 | 57 | 1011.8 |